createdAt,value
2023-03-24T00:03:02.843Z,13.70
2023-03-24T00:08:08.379Z,13.70
2023-03-24T00:13:11.759Z,13.60
2023-03-24T00:18:15.454Z,13.40
2023-03-24T00:23:20.781Z,13.30
2023-03-24T00:28:24.169Z,13.30
2023-03-24T00:33:27.605Z,13.20
2023-03-24T00:38:34.682Z,13.20
2023-03-24T00:43:38.460Z,13.00
2023-03-24T00:48:42.842Z,12.80
2023-03-24T00:53:47.911Z,12.70
2023-03-24T00:58:51.285Z,12.60
2023-03-24T01:03:56.809Z,12.40
2023-03-24T01:09:05.770Z,12.40
2023-03-24T01:14:10.453Z,12.30
2023-03-24T01:19:14.434Z,12.30
2023-03-24T01:24:19.236Z,12.20
2023-03-24T01:29:22.643Z,12.30
2023-03-24T01:34:26.283Z,12.50
2023-03-24T01:39:32.702Z,12.30
2023-03-24T01:44:38.211Z,12.30
2023-03-24T01:49:46.158Z,12.40
2023-03-24T01:54:54.483Z,12.20
2023-03-24T02:00:04.986Z,12.20
2023-03-24T02:05:42.315Z,12.30
2023-03-24T02:10:48.545Z,12.30
2023-03-24T02:16:15.353Z,11.90
2023-03-24T02:21:39.450Z,12.10
2023-03-24T02:27:00.384Z,12.30
2023-03-24T02:32:20.348Z,12.20
2023-03-24T02:38:08.865Z,11.90
2023-03-24T02:43:31.008Z,11.90
2023-03-24T02:48:39.310Z,11.80
2023-03-24T02:53:53.075Z,11.80
2023-03-24T02:59:08.228Z,11.80
2023-03-24T03:04:18.154Z,12.20
2023-03-24T03:09:24.424Z,12.00
2023-03-24T03:14:33.396Z,12.10
2023-03-24T03:19:40.532Z,12.10
2023-03-24T03:24:50.581Z,11.90
2023-03-24T03:30:00.438Z,11.70
2023-03-24T03:35:11.267Z,11.40
2023-03-24T03:40:18.943Z,11.20
2023-03-24T03:45:28.914Z,11.20
2023-03-24T03:50:33.183Z,11.10
2023-03-24T03:55:42.929Z,11.10
2023-03-24T04:00:47.847Z,11.00
2023-03-24T04:06:37.365Z,11.00
2023-03-24T04:12:07.243Z,10.90
2023-03-24T04:17:29.157Z,11.00
2023-03-24T04:22:41.483Z,11.00
2023-03-24T04:28:02.456Z,11.00
2023-03-24T04:33:18.172Z,10.90
2023-03-24T04:38:28.945Z,10.70
2023-03-24T04:43:58.156Z,10.60
2023-03-24T04:49:05.020Z,10.80
2023-03-24T04:54:11.476Z,10.90
2023-03-24T04:59:20.096Z,10.90
2023-03-24T05:04:26.857Z,10.90
2023-03-24T05:09:32.332Z,10.80
2023-03-24T05:14:37.296Z,10.80
2023-03-24T05:19:44.426Z,10.80
2023-03-24T05:24:48.421Z,11.00
2023-03-24T05:29:52.223Z,10.90
2023-03-24T05:35:04.245Z,11.10
2023-03-24T05:40:12.560Z,10.90
2023-03-24T05:45:33.256Z,10.90
2023-03-24T05:50:44.176Z,10.90
2023-03-24T05:55:53.867Z,11.10
2023-03-24T06:01:32.513Z,11.20
2023-03-24T06:06:50.847Z,11.10
2023-03-24T06:12:01.270Z,11.30
2023-03-24T06:17:05.893Z,11.50
2023-03-24T06:22:11.866Z,11.50
2023-03-24T06:27:18.954Z,11.50
2023-03-24T06:32:22.782Z,11.50
2023-03-24T06:37:28.303Z,11.30
2023-03-24T06:42:33.287Z,11.50
2023-03-24T06:47:37.046Z,11.50
2023-03-24T06:52:42.579Z,11.60
2023-03-24T06:57:51.691Z,11.50
2023-03-24T07:03:23.691Z,11.70
2023-03-24T07:09:07.251Z,10.10
2023-03-24T07:14:11.056Z,11.70
2023-03-24T07:19:16.149Z,11.50
2023-03-24T07:24:25.925Z,11.50
2023-03-24T07:29:41.593Z,11.50
2023-03-24T07:34:58.981Z,11.50
2023-03-24T07:40:06.025Z,11.70
2023-03-24T07:45:11.986Z,11.60
2023-03-24T07:50:19.012Z,11.30
2023-03-24T07:55:24.235Z,11.40
2023-03-24T08:00:33.061Z,11.50
2023-03-24T08:05:58.100Z,11.70
2023-03-24T08:11:18.040Z,12.00
2023-03-24T08:16:22.097Z,12.10
2023-03-24T08:21:26.234Z,11.90
2023-03-24T08:26:31.443Z,11.80
2023-03-24T08:31:35.391Z,12.00
2023-03-24T08:36:38.968Z,12.10
2023-03-24T08:41:44.177Z,12.20
2023-03-24T08:46:48.667Z,12.30
2023-03-24T08:51:52.465Z,12.40
2023-03-24T08:56:57.295Z,12.40
2023-03-24T09:02:00.717Z,12.50
2023-03-24T09:07:04.288Z,12.60
2023-03-24T09:12:09.877Z,12.60
2023-03-24T09:17:13.321Z,12.20
2023-03-24T09:22:16.591Z,12.80
2023-03-24T09:27:22.476Z,12.90
2023-03-24T09:32:25.951Z,13.00
2023-03-24T09:37:31.019Z,13.00
2023-03-24T09:42:40.061Z,12.10
2023-03-24T09:47:48.226Z,13.10
2023-03-24T09:52:55.476Z,13.20
2023-03-24T09:58:05.704Z,13.30
2023-03-24T10:03:19.583Z,13.40
2023-03-24T10:08:31.530Z,13.60
2023-03-24T10:13:50.719Z,13.70
2023-03-24T10:18:59.488Z,13.70
2023-03-24T10:24:09.872Z,13.60
2023-03-24T10:29:24.334Z,13.70
2023-03-24T10:34:31.036Z,14.00
2023-03-24T10:39:44.177Z,13.80
2023-03-24T10:44:52.379Z,13.50
2023-03-24T10:49:58.545Z,13.50
2023-03-24T10:55:07.381Z,13.40
2023-03-24T11:00:23.594Z,13.20
2023-03-24T11:05:31.354Z,13.20
2023-03-24T11:10:34.701Z,13.30
2023-03-24T11:15:39.703Z,13.30
2023-03-24T11:20:46.467Z,11.80
2023-03-24T11:26:02.747Z,13.40
2023-03-24T11:31:11.098Z,13.30
2023-03-24T11:36:45.461Z,13.40
2023-03-24T11:42:05.971Z,13.40
2023-03-24T11:47:14.207Z,13.60
2023-03-24T11:52:24.507Z,13.70
2023-03-24T11:57:45.517Z,13.80
2023-03-24T12:03:16.211Z,13.70
2023-03-24T12:08:34.871Z,13.60
2023-03-24T12:13:40.643Z,13.80
2023-03-24T12:19:02.678Z,14.20
2023-03-24T12:24:17.415Z,14.20
2023-03-24T12:29:35.337Z,14.40
2023-03-24T12:35:01.903Z,14.40
2023-03-24T12:40:24.517Z,15.50
2023-03-24T12:45:37.232Z,15.30
2023-03-24T12:50:57.769Z,15.00
2023-03-24T12:56:06.448Z,14.80
2023-03-24T13:01:19.421Z,14.90
2023-03-24T13:06:29.884Z,15.60
2023-03-24T13:11:47.335Z,16.10
2023-03-24T13:16:51.850Z,15.50
2023-03-24T13:21:58.150Z,15.30
2023-03-24T13:27:10.704Z,15.30
2023-03-24T13:32:25.674Z,15.30
2023-03-24T13:37:37.406Z,15.50
2023-03-24T13:42:46.692Z,15.80
2023-03-24T13:47:51.971Z,15.70
2023-03-24T13:52:59.828Z,15.60
2023-03-24T13:58:10.808Z,15.70
2023-03-24T14:03:20.880Z,14.40
2023-03-24T14:08:44.244Z,15.80
2023-03-24T14:13:48.812Z,15.70
2023-03-24T14:18:52.161Z,15.50
2023-03-24T14:23:59.671Z,15.50
2023-03-24T14:29:03.820Z,15.60
2023-03-24T14:34:11.126Z,16.40
2023-03-24T14:39:27.870Z,16.00
2023-03-24T14:44:53.996Z,16.20
2023-03-24T14:49:58.432Z,13.80
2023-03-24T14:55:06.678Z,15.80
2023-03-24T15:00:17.415Z,15.80
2023-03-24T15:05:30.101Z,15.80
2023-03-24T15:10:40.350Z,15.70
2023-03-24T15:15:48.714Z,15.70
2023-03-24T15:20:52.678Z,14.00
2023-03-24T15:25:57.421Z,15.50
2023-03-24T15:31:01.383Z,15.40
2023-03-24T15:36:05.129Z,15.30
2023-03-24T15:41:13.808Z,15.30
2023-03-24T15:46:28.110Z,15.20
2023-03-24T15:51:50.149Z,15.10
2023-03-24T15:57:17.707Z,15.00
2023-03-24T16:02:33.167Z,14.90
2023-03-24T16:07:37.697Z,14.90
2023-03-24T16:12:42.593Z,14.80
2023-03-24T16:17:47.853Z,14.80
2023-03-24T16:22:51.429Z,14.70
2023-03-24T16:27:56.136Z,14.70
2023-03-24T16:32:59.632Z,14.60
2023-03-24T16:38:02.974Z,14.50
2023-03-24T16:43:07.874Z,14.40
2023-03-24T16:48:11.606Z,14.20
2023-03-24T16:53:15.002Z,14.10
2023-03-24T16:58:19.948Z,14.10
2023-03-24T17:03:24.421Z,14.00
2023-03-24T17:08:27.924Z,13.50
2023-03-24T17:13:32.666Z,13.10
2023-03-24T17:18:39.656Z,12.80
2023-03-24T17:23:44.418Z,12.50
2023-03-24T17:28:49.549Z,12.30
2023-03-24T17:33:53.064Z,12.40
2023-03-24T17:38:57.874Z,12.10
2023-03-24T17:44:02.664Z,11.80
2023-03-24T17:49:06.470Z,11.60
2023-03-24T17:54:11.888Z,11.50
2023-03-24T17:59:17.162Z,14.10
2023-03-24T18:04:20.809Z,11.40
2023-03-24T18:09:24.229Z,11.50
2023-03-24T18:14:28.942Z,11.50
2023-03-24T18:19:32.586Z,11.40
2023-03-24T18:24:36.375Z,8.60
2023-03-24T18:29:41.374Z,11.30
2023-03-24T18:34:44.868Z,11.30
2023-03-24T18:39:48.354Z,11.20
2023-03-24T18:44:53.154Z,11.20
2023-03-24T18:49:56.479Z,12.20
2023-03-24T18:55:01.674Z,11.00
2023-03-24T19:00:09.692Z,10.80
2023-03-24T19:05:14.258Z,10.70
2023-03-24T19:10:17.882Z,10.70
2023-03-24T19:15:24.849Z,10.70
2023-03-24T19:20:28.405Z,10.80
2023-03-24T19:25:31.887Z,10.90
2023-03-24T19:30:38.562Z,10.80
2023-03-24T19:35:41.991Z,10.90
2023-03-24T19:40:45.742Z,10.90
2023-03-24T19:45:51.959Z,11.00
2023-03-24T19:50:56.369Z,11.00
2023-03-24T19:56:01.283Z,11.00
2023-03-24T20:01:06.462Z,10.90
2023-03-24T20:06:10.844Z,10.90
2023-03-24T20:11:14.322Z,10.80
2023-03-24T20:16:19.074Z,10.80
2023-03-24T20:21:23.602Z,10.70
2023-03-24T20:26:28.597Z,10.80
2023-03-24T20:31:36.340Z,10.80
2023-03-24T20:36:41.336Z,10.70
2023-03-24T20:41:45.326Z,10.70
2023-03-24T20:46:50.235Z,10.60
2023-03-24T20:51:54.215Z,10.50
2023-03-24T20:56:57.543Z,10.50
2023-03-24T21:02:02.307Z,10.40
2023-03-24T21:07:05.634Z,10.40
2023-03-24T21:12:09.530Z,10.30
2023-03-24T21:17:14.278Z,10.30
2023-03-24T21:22:17.846Z,10.30
2023-03-24T21:27:21.517Z,10.40
2023-03-24T21:32:26.355Z,10.40
2023-03-24T21:37:30.285Z,10.40
2023-03-24T21:42:34.838Z,10.30
2023-03-24T21:47:40.010Z,10.40
2023-03-24T21:52:46.863Z,10.40
2023-03-24T21:57:52.005Z,10.30
2023-03-24T22:02:58.329Z,10.30
2023-03-24T22:08:03.029Z,10.30
2023-03-24T22:13:06.556Z,10.10
2023-03-24T22:18:11.400Z,10.10
2023-03-24T22:23:16.246Z,10.00
2023-03-24T22:28:20.741Z,10.00
2023-03-24T22:33:25.558Z,9.90
2023-03-24T22:38:29.828Z,9.80
2023-03-24T22:43:33.601Z,9.70
2023-03-24T22:48:39.553Z,9.70
2023-03-24T22:53:42.899Z,9.60
2023-03-24T22:58:46.233Z,9.50
2023-03-24T23:03:51.135Z,9.50
2023-03-24T23:08:54.542Z,9.50
2023-03-24T23:14:02.471Z,9.50
2023-03-24T23:19:08.606Z,9.40
2023-03-24T23:24:12.138Z,9.30
2023-03-24T23:29:15.605Z,9.20
2023-03-24T23:34:21.420Z,9.20
2023-03-24T23:39:24.949Z,9.10
2023-03-24T23:44:28.292Z,9.10
2023-03-24T23:49:33.064Z,9.00
2023-03-24T23:54:36.757Z,9.00
2023-03-24T23:59:40.727Z,8.90
